sensor_id;sensor_type;location;lat;lon;timestamp;P1;durP1;ratioP1;P2;durP2;ratioP2
12892;SDS011;6514;48.606;9.222;2023-02-28T00:01:21;2.60;;;2.40;;
12892;SDS011;6514;48.606;9.222;2023-02-28T00:03:48;4.17;;;2.50;;
12892;SDS011;6514;48.606;9.222;2023-02-28T00:06:15;4.23;;;2.27;;
12892;SDS011;6514;48.606;9.222;2023-02-28T00:08:44;2.77;;;2.43;;
12892;SDS011;6514;48.606;9.222;2023-02-28T00:11:12;2.33;;;2.13;;
12892;SDS011;6514;48.606;9.222;2023-02-28T00:16:08;3.67;;;2.60;;
12892;SDS011;6514;48.606;9.222;2023-02-28T00:18:38;4.63;;;2.43;;
12892;SDS011;6514;48.606;9.222;2023-02-28T00:21:05;2.93;;;2.30;;
12892;SDS011;6514;48.606;9.222;2023-02-28T00:23:33;2.90;;;2.37;;
12892;SDS011;6514;48.606;9.222;2023-02-28T00:26:02;2.83;;;2.57;;
12892;SDS011;6514;48.606;9.222;2023-02-28T00:28:29;2.50;;;2.30;;
12892;SDS011;6514;48.606;9.222;2023-02-28T00:30:56;3.13;;;2.37;;
12892;SDS011;6514;48.606;9.222;2023-02-28T00:33:24;2.90;;;2.53;;
12892;SDS011;6514;48.606;9.222;2023-02-28T00:35:52;3.23;;;2.50;;
12892;SDS011;6514;48.606;9.222;2023-02-28T00:38:26;2.47;;;2.27;;
12892;SDS011;6514;48.606;9.222;2023-02-28T00:40:53;3.07;;;2.10;;
12892;SDS011;6514;48.606;9.222;2023-02-28T00:43:21;3.17;;;2.50;;
12892;SDS011;6514;48.606;9.222;2023-02-28T00:45:48;3.80;;;2.50;;
12892;SDS011;6514;48.606;9.222;2023-02-28T00:48:15;2.67;;;2.47;;
12892;SDS011;6514;48.606;9.222;2023-02-28T00:50:42;2.87;;;1.97;;
12892;SDS011;6514;48.606;9.222;2023-02-28T00:53:09;4.90;;;3.00;;
12892;SDS011;6514;48.606;9.222;2023-02-28T00:55:36;4.10;;;2.43;;
12892;SDS011;6514;48.606;9.222;2023-02-28T00:58:02;3.37;;;2.10;;
12892;SDS011;6514;48.606;9.222;2023-02-28T01:00:31;4.17;;;2.30;;
12892;SDS011;6514;48.606;9.222;2023-02-28T01:02:58;3.33;;;2.60;;
12892;SDS011;6514;48.606;9.222;2023-02-28T01:05:25;3.37;;;2.30;;
12892;SDS011;6514;48.606;9.222;2023-02-28T01:07:52;3.93;;;2.40;;
12892;SDS011;6514;48.606;9.222;2023-02-28T01:10:19;2.80;;;2.40;;
12892;SDS011;6514;48.606;9.222;2023-02-28T01:12:45;2.60;;;2.20;;
12892;SDS011;6514;48.606;9.222;2023-02-28T01:15:15;3.00;;;2.40;;
12892;SDS011;6514;48.606;9.222;2023-02-28T01:17:44;4.13;;;2.40;;
12892;SDS011;6514;48.606;9.222;2023-02-28T01:20:11;4.07;;;2.50;;
12892;SDS011;6514;48.606;9.222;2023-02-28T01:22:38;3.53;;;2.57;;
12892;SDS011;6514;48.606;9.222;2023-02-28T01:25:05;3.93;;;2.77;;
12892;SDS011;6514;48.606;9.222;2023-02-28T01:27:33;3.07;;;2.40;;
12892;SDS011;6514;48.606;9.222;2023-02-28T01:30:00;3.80;;;2.37;;
12892;SDS011;6514;48.606;9.222;2023-02-28T01:32:27;3.07;;;2.53;;
12892;SDS011;6514;48.606;9.222;2023-02-28T01:34:56;3.93;;;2.90;;
12892;SDS011;6514;48.606;9.222;2023-02-28T01:37:22;2.83;;;2.30;;
12892;SDS011;6514;48.606;9.222;2023-02-28T01:39:49;3.27;;;2.50;;
12892;SDS011;6514;48.606;9.222;2023-02-28T01:42:16;4.93;;;2.80;;
12892;SDS011;6514;48.606;9.222;2023-02-28T01:45:00;3.27;;;2.37;;
12892;SDS011;6514;48.606;9.222;2023-02-28T01:47:30;3.67;;;2.30;;
12892;SDS011;6514;48.606;9.222;2023-02-28T01:50:03;3.00;;;2.30;;
12892;SDS011;6514;48.606;9.222;2023-02-28T01:52:34;2.90;;;2.27;;
12892;SDS011;6514;48.606;9.222;2023-02-28T01:55:02;3.70;;;2.70;;
12892;SDS011;6514;48.606;9.222;2023-02-28T01:57:33;3.53;;;2.40;;
12892;SDS011;6514;48.606;9.222;2023-02-28T02:00:04;4.10;;;3.07;;
12892;SDS011;6514;48.606;9.222;2023-02-28T02:02:38;3.03;;;2.40;;
12892;SDS011;6514;48.606;9.222;2023-02-28T02:05:08;3.57;;;2.90;;
12892;SDS011;6514;48.606;9.222;2023-02-28T02:07:38;3.57;;;2.43;;
12892;SDS011;6514;48.606;9.222;2023-02-28T02:10:11;3.67;;;2.70;;
12892;SDS011;6514;48.606;9.222;2023-02-28T02:15:47;4.50;;;2.60;;
12892;SDS011;6514;48.606;9.222;2023-02-28T02:18:25;3.37;;;2.60;;
12892;SDS011;6514;48.606;9.222;2023-02-28T02:27:17;4.20;;;2.70;;
12892;SDS011;6514;48.606;9.222;2023-02-28T02:29:58;3.73;;;3.10;;
12892;SDS011;6514;48.606;9.222;2023-02-28T02:35:42;2.90;;;2.60;;
12892;SDS011;6514;48.606;9.222;2023-02-28T02:38:17;4.20;;;2.67;;
12892;SDS011;6514;48.606;9.222;2023-02-28T02:40:53;4.50;;;3.13;;
12892;SDS011;6514;48.606;9.222;2023-02-28T02:43:25;3.57;;;2.60;;
12892;SDS011;6514;48.606;9.222;2023-02-28T02:45:55;5.30;;;2.97;;
12892;SDS011;6514;48.606;9.222;2023-02-28T02:48:27;4.47;;;2.60;;
12892;SDS011;6514;48.606;9.222;2023-02-28T02:50:59;3.63;;;3.07;;
12892;SDS011;6514;48.606;9.222;2023-02-28T02:53:30;4.07;;;2.80;;
12892;SDS011;6514;48.606;9.222;2023-02-28T02:56:01;4.50;;;3.10;;
12892;SDS011;6514;48.606;9.222;2023-02-28T02:58:31;3.43;;;3.13;;
12892;SDS011;6514;48.606;9.222;2023-02-28T03:01:01;4.13;;;2.90;;
12892;SDS011;6514;48.606;9.222;2023-02-28T03:03:30;3.83;;;2.70;;
12892;SDS011;6514;48.606;9.222;2023-02-28T03:06:00;3.70;;;2.50;;
12892;SDS011;6514;48.606;9.222;2023-02-28T03:08:29;4.33;;;2.87;;
12892;SDS011;6514;48.606;9.222;2023-02-28T03:11:00;5.73;;;2.93;;
12892;SDS011;6514;48.606;9.222;2023-02-28T03:13:42;4.27;;;2.97;;
12892;SDS011;6514;48.606;9.222;2023-02-28T03:16:22;5.77;;;3.10;;
12892;SDS011;6514;48.606;9.222;2023-02-28T03:19:16;8.47;;;3.47;;
12892;SDS011;6514;48.606;9.222;2023-02-28T03:25:06;4.17;;;2.97;;
12892;SDS011;6514;48.606;9.222;2023-02-28T03:27:36;4.50;;;3.00;;
12892;SDS011;6514;48.606;9.222;2023-02-28T03:30:09;4.07;;;2.80;;
12892;SDS011;6514;48.606;9.222;2023-02-28T03:32:42;3.73;;;3.20;;
12892;SDS011;6514;48.606;9.222;2023-02-28T03:35:16;4.10;;;3.23;;
12892;SDS011;6514;48.606;9.222;2023-02-28T03:37:49;4.77;;;3.00;;
12892;SDS011;6514;48.606;9.222;2023-02-28T03:40:20;4.53;;;3.00;;
12892;SDS011;6514;48.606;9.222;2023-02-28T03:42:54;3.17;;;2.83;;
12892;SDS011;6514;48.606;9.222;2023-02-28T03:45:25;3.40;;;3.10;;
12892;SDS011;6514;48.606;9.222;2023-02-28T03:47:55;4.37;;;3.33;;
12892;SDS011;6514;48.606;9.222;2023-02-28T03:50:27;4.20;;;3.40;;
12892;SDS011;6514;48.606;9.222;2023-02-28T03:53:02;5.53;;;3.30;;
12892;SDS011;6514;48.606;9.222;2023-02-28T03:55:37;4.27;;;3.03;;
12892;SDS011;6514;48.606;9.222;2023-02-28T03:58:09;4.90;;;3.20;;
12892;SDS011;6514;48.606;9.222;2023-02-28T04:00:43;4.83;;;3.63;;
12892;SDS011;6514;48.606;9.222;2023-02-28T04:03:14;4.27;;;3.10;;
12892;SDS011;6514;48.606;9.222;2023-02-28T04:05:48;4.07;;;3.50;;
12892;SDS011;6514;48.606;9.222;2023-02-28T04:08:19;4.93;;;3.90;;
12892;SDS011;6514;48.606;9.222;2023-02-28T04:10:48;4.20;;;3.30;;
12892;SDS011;6514;48.606;9.222;2023-02-28T04:13:19;5.03;;;3.40;;
12892;SDS011;6514;48.606;9.222;2023-02-28T04:15:46;5.90;;;3.90;;
12892;SDS011;6514;48.606;9.222;2023-02-28T04:18:13;5.40;;;3.80;;
12892;SDS011;6514;48.606;9.222;2023-02-28T04:20:40;4.67;;;3.93;;
12892;SDS011;6514;48.606;9.222;2023-02-28T04:23:07;4.27;;;3.50;;
12892;SDS011;6514;48.606;9.222;2023-02-28T04:25:35;5.00;;;3.90;;
12892;SDS011;6514;48.606;9.222;2023-02-28T04:28:02;4.90;;;3.63;;
12892;SDS011;6514;48.606;9.222;2023-02-28T04:30:29;4.27;;;3.60;;
12892;SDS011;6514;48.606;9.222;2023-02-28T04:32:57;3.83;;;3.43;;
12892;SDS011;6514;48.606;9.222;2023-02-28T04:35:24;5.83;;;3.97;;
12892;SDS011;6514;48.606;9.222;2023-02-28T04:37:51;4.23;;;3.77;;
12892;SDS011;6514;48.606;9.222;2023-02-28T04:40:18;5.07;;;3.47;;
12892;SDS011;6514;48.606;9.222;2023-02-28T04:42:46;5.60;;;3.80;;
12892;SDS011;6514;48.606;9.222;2023-02-28T04:45:14;4.27;;;3.80;;
12892;SDS011;6514;48.606;9.222;2023-02-28T04:47:42;5.30;;;4.10;;
12892;SDS011;6514;48.606;9.222;2023-02-28T04:50:09;4.57;;;4.03;;
12892;SDS011;6514;48.606;9.222;2023-02-28T04:52:36;4.70;;;4.20;;
12892;SDS011;6514;48.606;9.222;2023-02-28T04:55:04;4.63;;;3.80;;
12892;SDS011;6514;48.606;9.222;2023-02-28T04:57:32;5.43;;;3.83;;
12892;SDS011;6514;48.606;9.222;2023-02-28T05:00:00;4.40;;;4.00;;
12892;SDS011;6514;48.606;9.222;2023-02-28T05:02:34;4.50;;;3.97;;
12892;SDS011;6514;48.606;9.222;2023-02-28T05:05:01;7.97;;;4.50;;
12892;SDS011;6514;48.606;9.222;2023-02-28T05:07:28;6.30;;;4.67;;
12892;SDS011;6514;48.606;9.222;2023-02-28T05:09:55;5.40;;;4.43;;
12892;SDS011;6514;48.606;9.222;2023-02-28T05:12:22;5.20;;;4.40;;
12892;SDS011;6514;48.606;9.222;2023-02-28T05:14:49;6.27;;;4.60;;
12892;SDS011;6514;48.606;9.222;2023-02-28T05:17:17;6.50;;;4.40;;
12892;SDS011;6514;48.606;9.222;2023-02-28T05:19:44;6.23;;;4.60;;
12892;SDS011;6514;48.606;9.222;2023-02-28T05:22:14;4.97;;;4.47;;
12892;SDS011;6514;48.606;9.222;2023-02-28T05:24:42;5.77;;;4.43;;
12892;SDS011;6514;48.606;9.222;2023-02-28T05:27:09;7.27;;;4.70;;
12892;SDS011;6514;48.606;9.222;2023-02-28T05:29:37;4.70;;;4.03;;
12892;SDS011;6514;48.606;9.222;2023-02-28T05:32:08;5.00;;;4.43;;
12892;SDS011;6514;48.606;9.222;2023-02-28T05:34:37;5.90;;;4.87;;
12892;SDS011;6514;48.606;9.222;2023-02-28T05:37:05;6.33;;;4.90;;
12892;SDS011;6514;48.606;9.222;2023-02-28T05:39:32;5.80;;;4.90;;
12892;SDS011;6514;48.606;9.222;2023-02-28T05:41:59;9.07;;;5.40;;
12892;SDS011;6514;48.606;9.222;2023-02-28T05:44:26;5.03;;;4.33;;
12892;SDS011;6514;48.606;9.222;2023-02-28T05:46:53;5.57;;;4.43;;
12892;SDS011;6514;48.606;9.222;2023-02-28T05:49:20;5.73;;;5.10;;
12892;SDS011;6514;48.606;9.222;2023-02-28T05:51:48;5.70;;;4.67;;
12892;SDS011;6514;48.606;9.222;2023-02-28T05:54:15;6.33;;;5.03;;
12892;SDS011;6514;48.606;9.222;2023-02-28T05:56:42;6.03;;;5.47;;
12892;SDS011;6514;48.606;9.222;2023-02-28T05:59:10;5.83;;;5.17;;
12892;SDS011;6514;48.606;9.222;2023-02-28T06:01:39;5.57;;;4.43;;
12892;SDS011;6514;48.606;9.222;2023-02-28T06:04:10;6.90;;;5.60;;
12892;SDS011;6514;48.606;9.222;2023-02-28T06:06:39;8.20;;;5.17;;
12892;SDS011;6514;48.606;9.222;2023-02-28T06:09:07;5.87;;;5.20;;
12892;SDS011;6514;48.606;9.222;2023-02-28T06:11:34;6.17;;;5.13;;
12892;SDS011;6514;48.606;9.222;2023-02-28T06:14:01;6.53;;;5.80;;
12892;SDS011;6514;48.606;9.222;2023-02-28T06:16:29;6.47;;;5.20;;
12892;SDS011;6514;48.606;9.222;2023-02-28T06:18:57;6.53;;;5.70;;
12892;SDS011;6514;48.606;9.222;2023-02-28T06:21:25;7.77;;;5.63;;
12892;SDS011;6514;48.606;9.222;2023-02-28T06:23:53;6.20;;;5.37;;
12892;SDS011;6514;48.606;9.222;2023-02-28T06:26:22;6.93;;;5.47;;
12892;SDS011;6514;48.606;9.222;2023-02-28T06:28:49;6.73;;;5.43;;
12892;SDS011;6514;48.606;9.222;2023-02-28T06:31:17;8.07;;;6.07;;
12892;SDS011;6514;48.606;9.222;2023-02-28T06:33:44;8.80;;;5.37;;
12892;SDS011;6514;48.606;9.222;2023-02-28T06:36:12;6.87;;;5.37;;
12892;SDS011;6514;48.606;9.222;2023-02-28T06:38:40;6.20;;;5.37;;
12892;SDS011;6514;48.606;9.222;2023-02-28T06:41:08;6.97;;;5.63;;
12892;SDS011;6514;48.606;9.222;2023-02-28T06:43:38;7.63;;;5.87;;
12892;SDS011;6514;48.606;9.222;2023-02-28T06:46:07;7.57;;;5.60;;
12892;SDS011;6514;48.606;9.222;2023-02-28T06:48:35;7.37;;;5.77;;
12892;SDS011;6514;48.606;9.222;2023-02-28T06:51:02;7.53;;;6.37;;
12892;SDS011;6514;48.606;9.222;2023-02-28T06:53:30;7.20;;;5.60;;
12892;SDS011;6514;48.606;9.222;2023-02-28T06:55:57;9.17;;;5.60;;
12892;SDS011;6514;48.606;9.222;2023-02-28T06:58:24;8.20;;;5.57;;
12892;SDS011;6514;48.606;9.222;2023-02-28T07:00:52;7.73;;;6.43;;
12892;SDS011;6514;48.606;9.222;2023-02-28T07:03:19;6.50;;;5.43;;
12892;SDS011;6514;48.606;9.222;2023-02-28T07:05:46;6.90;;;6.20;;
12892;SDS011;6514;48.606;9.222;2023-02-28T07:08:13;6.87;;;5.67;;
12892;SDS011;6514;48.606;9.222;2023-02-28T07:10:41;6.37;;;5.53;;
12892;SDS011;6514;48.606;9.222;2023-02-28T07:13:08;7.00;;;6.00;;
12892;SDS011;6514;48.606;9.222;2023-02-28T07:15:35;8.27;;;5.93;;
12892;SDS011;6514;48.606;9.222;2023-02-28T07:18:04;6.67;;;5.87;;
12892;SDS011;6514;48.606;9.222;2023-02-28T07:20:31;8.57;;;5.67;;
12892;SDS011;6514;48.606;9.222;2023-02-28T07:22:57;9.87;;;5.97;;
12892;SDS011;6514;48.606;9.222;2023-02-28T07:25:25;7.17;;;6.00;;
12892;SDS011;6514;48.606;9.222;2023-02-28T07:27:53;8.07;;;6.00;;
12892;SDS011;6514;48.606;9.222;2023-02-28T07:30:21;18.33;;;11.53;;
12892;SDS011;6514;48.606;9.222;2023-02-28T07:32:47;8.00;;;6.30;;
12892;SDS011;6514;48.606;9.222;2023-02-28T07:35:16;8.17;;;6.17;;
12892;SDS011;6514;48.606;9.222;2023-02-28T07:37:43;7.70;;;5.63;;
12892;SDS011;6514;48.606;9.222;2023-02-28T07:40:12;7.27;;;6.13;;
12892;SDS011;6514;48.606;9.222;2023-02-28T07:42:40;8.60;;;6.57;;
12892;SDS011;6514;48.606;9.222;2023-02-28T07:45:08;7.13;;;6.10;;
12892;SDS011;6514;48.606;9.222;2023-02-28T07:47:37;9.90;;;6.30;;
12892;SDS011;6514;48.606;9.222;2023-02-28T07:50:04;7.00;;;6.13;;
12892;SDS011;6514;48.606;9.222;2023-02-28T07:52:33;8.20;;;6.40;;
12892;SDS011;6514;48.606;9.222;2023-02-28T07:55:00;8.37;;;6.40;;
12892;SDS011;6514;48.606;9.222;2023-02-28T07:57:27;9.90;;;6.37;;
12892;SDS011;6514;48.606;9.222;2023-02-28T07:59:54;8.70;;;7.07;;
12892;SDS011;6514;48.606;9.222;2023-02-28T08:02:21;7.67;;;6.23;;
12892;SDS011;6514;48.606;9.222;2023-02-28T08:04:48;8.37;;;6.47;;
12892;SDS011;6514;48.606;9.222;2023-02-28T08:07:15;7.83;;;6.40;;
12892;SDS011;6514;48.606;9.222;2023-02-28T08:09:44;8.03;;;6.17;;
12892;SDS011;6514;48.606;9.222;2023-02-28T08:12:11;7.87;;;6.33;;
12892;SDS011;6514;48.606;9.222;2023-02-28T08:14:38;9.37;;;6.80;;
12892;SDS011;6514;48.606;9.222;2023-02-28T08:17:05;10.13;;;7.17;;
12892;SDS011;6514;48.606;9.222;2023-02-28T08:19:32;8.40;;;6.77;;
12892;SDS011;6514;48.606;9.222;2023-02-28T08:21:59;7.50;;;6.70;;
12892;SDS011;6514;48.606;9.222;2023-02-28T08:24:26;8.07;;;6.93;;
12892;SDS011;6514;48.606;9.222;2023-02-28T08:26:54;9.77;;;7.50;;
12892;SDS011;6514;48.606;9.222;2023-02-28T08:29:21;9.77;;;6.90;;
12892;SDS011;6514;48.606;9.222;2023-02-28T08:31:48;7.83;;;7.00;;
12892;SDS011;6514;48.606;9.222;2023-02-28T08:34:16;8.37;;;6.77;;
12892;SDS011;6514;48.606;9.222;2023-02-28T08:36:43;9.03;;;7.43;;
12892;SDS011;6514;48.606;9.222;2023-02-28T08:39:11;8.27;;;6.97;;
12892;SDS011;6514;48.606;9.222;2023-02-28T08:41:38;8.33;;;7.13;;
12892;SDS011;6514;48.606;9.222;2023-02-28T08:44:06;8.60;;;7.70;;
12892;SDS011;6514;48.606;9.222;2023-02-28T08:46:33;7.87;;;7.00;;
12892;SDS011;6514;48.606;9.222;2023-02-28T08:49:00;9.90;;;6.90;;
12892;SDS011;6514;48.606;9.222;2023-02-28T08:51:27;9.40;;;7.47;;
12892;SDS011;6514;48.606;9.222;2023-02-28T08:54:00;11.53;;;7.70;;
12892;SDS011;6514;48.606;9.222;2023-02-28T08:56:28;8.70;;;7.23;;
12892;SDS011;6514;48.606;9.222;2023-02-28T08:58:56;10.00;;;7.83;;
12892;SDS011;6514;48.606;9.222;2023-02-28T09:01:25;9.57;;;7.33;;
12892;SDS011;6514;48.606;9.222;2023-02-28T09:03:56;9.47;;;7.30;;
12892;SDS011;6514;48.606;9.222;2023-02-28T09:06:25;8.47;;;7.00;;
12892;SDS011;6514;48.606;9.222;2023-02-28T09:08:53;12.67;;;8.70;;
12892;SDS011;6514;48.606;9.222;2023-02-28T09:11:26;9.43;;;7.00;;
12892;SDS011;6514;48.606;9.222;2023-02-28T09:13:53;9.43;;;7.33;;
12892;SDS011;6514;48.606;9.222;2023-02-28T09:16:21;9.00;;;7.73;;
12892;SDS011;6514;48.606;9.222;2023-02-28T09:18:49;9.83;;;8.00;;
12892;SDS011;6514;48.606;9.222;2023-02-28T09:21:17;8.93;;;7.13;;
12892;SDS011;6514;48.606;9.222;2023-02-28T09:23:45;9.27;;;7.63;;
12892;SDS011;6514;48.606;9.222;2023-02-28T09:26:13;7.97;;;6.57;;
12892;SDS011;6514;48.606;9.222;2023-02-28T09:28:41;8.07;;;7.27;;
12892;SDS011;6514;48.606;9.222;2023-02-28T09:31:10;10.57;;;7.27;;
12892;SDS011;6514;48.606;9.222;2023-02-28T09:33:39;8.63;;;6.83;;
12892;SDS011;6514;48.606;9.222;2023-02-28T09:36:08;8.67;;;7.40;;
12892;SDS011;6514;48.606;9.222;2023-02-28T09:38:34;7.90;;;7.10;;
12892;SDS011;6514;48.606;9.222;2023-02-28T09:41:10;9.60;;;7.70;;
12892;SDS011;6514;48.606;9.222;2023-02-28T09:43:40;9.20;;;7.63;;
12892;SDS011;6514;48.606;9.222;2023-02-28T09:46:17;8.80;;;6.93;;
12892;SDS011;6514;48.606;9.222;2023-02-28T09:48:51;9.37;;;7.33;;
12892;SDS011;6514;48.606;9.222;2023-02-28T09:51:27;7.97;;;7.03;;
12892;SDS011;6514;48.606;9.222;2023-02-28T09:54:03;8.43;;;6.97;;
12892;SDS011;6514;48.606;9.222;2023-02-28T09:56:33;8.20;;;7.03;;
12892;SDS011;6514;48.606;9.222;2023-02-28T09:59:05;8.77;;;7.10;;
12892;SDS011;6514;48.606;9.222;2023-02-28T10:01:39;9.33;;;7.50;;
12892;SDS011;6514;48.606;9.222;2023-02-28T10:04:15;9.83;;;7.37;;
12892;SDS011;6514;48.606;9.222;2023-02-28T10:06:56;8.43;;;7.00;;
12892;SDS011;6514;48.606;9.222;2023-02-28T10:09:24;9.90;;;7.53;;
12892;SDS011;6514;48.606;9.222;2023-02-28T10:11:57;9.33;;;7.40;;
12892;SDS011;6514;48.606;9.222;2023-02-28T10:14:29;11.87;;;7.90;;
12892;SDS011;6514;48.606;9.222;2023-02-28T10:17:01;10.03;;;7.53;;
12892;SDS011;6514;48.606;9.222;2023-02-28T10:19:31;8.20;;;6.60;;
12892;SDS011;6514;48.606;9.222;2023-02-28T10:22:10;8.27;;;6.80;;
12892;SDS011;6514;48.606;9.222;2023-02-28T10:24:41;9.10;;;7.03;;
12892;SDS011;6514;48.606;9.222;2023-02-28T10:27:12;8.80;;;7.73;;
12892;SDS011;6514;48.606;9.222;2023-02-28T10:29:42;8.10;;;6.87;;
12892;SDS011;6514;48.606;9.222;2023-02-28T10:32:13;9.77;;;7.80;;
12892;SDS011;6514;48.606;9.222;2023-02-28T10:34:42;10.37;;;7.07;;
12892;SDS011;6514;48.606;9.222;2023-02-28T10:37:10;7.80;;;7.00;;
12892;SDS011;6514;48.606;9.222;2023-02-28T10:39:40;8.57;;;7.17;;
12892;SDS011;6514;48.606;9.222;2023-02-28T10:42:21;8.10;;;7.30;;
12892;SDS011;6514;48.606;9.222;2023-02-28T10:45:04;8.40;;;7.03;;
12892;SDS011;6514;48.606;9.222;2023-02-28T10:47:33;8.47;;;7.10;;
12892;SDS011;6514;48.606;9.222;2023-02-28T10:50:01;10.03;;;7.23;;
12892;SDS011;6514;48.606;9.222;2023-02-28T10:52:34;9.40;;;7.30;;
12892;SDS011;6514;48.606;9.222;2023-02-28T10:55:15;10.13;;;7.80;;
12892;SDS011;6514;48.606;9.222;2023-02-28T10:57:46;12.00;;;8.67;;
12892;SDS011;6514;48.606;9.222;2023-02-28T11:00:15;7.83;;;7.00;;
12892;SDS011;6514;48.606;9.222;2023-02-28T11:02:44;8.13;;;7.33;;
12892;SDS011;6514;48.606;9.222;2023-02-28T11:05:25;8.03;;;7.23;;
12892;SDS011;6514;48.606;9.222;2023-02-28T11:11:00;10.73;;;7.63;;
12892;SDS011;6514;48.606;9.222;2023-02-28T11:13:32;9.73;;;7.87;;
12892;SDS011;6514;48.606;9.222;2023-02-28T11:16:02;9.73;;;7.80;;
12892;SDS011;6514;48.606;9.222;2023-02-28T11:18:39;11.33;;;8.73;;
12892;SDS011;6514;48.606;9.222;2023-02-28T11:21:08;10.67;;;8.07;;
12892;SDS011;6514;48.606;9.222;2023-02-28T11:23:42;9.17;;;7.97;;
12892;SDS011;6514;48.606;9.222;2023-02-28T11:26:10;10.70;;;8.53;;
12892;SDS011;6514;48.606;9.222;2023-02-28T11:28:43;10.30;;;8.80;;
12892;SDS011;6514;48.606;9.222;2023-02-28T11:31:17;8.77;;;7.40;;
12892;SDS011;6514;48.606;9.222;2023-02-28T11:33:47;8.50;;;7.70;;
12892;SDS011;6514;48.606;9.222;2023-02-28T11:36:17;8.80;;;7.90;;
12892;SDS011;6514;48.606;9.222;2023-02-28T11:38:47;9.30;;;7.30;;
12892;SDS011;6514;48.606;9.222;2023-02-28T11:41:19;7.63;;;6.93;;
12892;SDS011;6514;48.606;9.222;2023-02-28T11:44:05;9.53;;;7.80;;
12892;SDS011;6514;48.606;9.222;2023-02-28T11:46:44;10.07;;;8.43;;
12892;SDS011;6514;48.606;9.222;2023-02-28T11:49:19;9.63;;;7.30;;
12892;SDS011;6514;48.606;9.222;2023-02-28T11:51:57;8.00;;;7.20;;
12892;SDS011;6514;48.606;9.222;2023-02-28T11:54:35;7.57;;;6.77;;
12892;SDS011;6514;48.606;9.222;2023-02-28T11:57:18;7.37;;;6.50;;
12892;SDS011;6514;48.606;9.222;2023-02-28T11:59:59;9.17;;;7.47;;
12892;SDS011;6514;48.606;9.222;2023-02-28T12:02:35;9.17;;;7.00;;
12892;SDS011;6514;48.606;9.222;2023-02-28T12:05:21;8.20;;;7.13;;
12892;SDS011;6514;48.606;9.222;2023-02-28T12:07:57;10.13;;;8.73;;
12892;SDS011;6514;48.606;9.222;2023-02-28T12:10:34;10.10;;;8.03;;
12892;SDS011;6514;48.606;9.222;2023-02-28T12:13:11;8.93;;;8.00;;
12892;SDS011;6514;48.606;9.222;2023-02-28T12:21:32;8.87;;;7.27;;
12892;SDS011;6514;48.606;9.222;2023-02-28T12:24:12;8.43;;;7.20;;
12892;SDS011;6514;48.606;9.222;2023-02-28T12:26:53;9.03;;;7.93;;
12892;SDS011;6514;48.606;9.222;2023-02-28T12:29:23;8.33;;;7.53;;
12892;SDS011;6514;48.606;9.222;2023-02-28T12:31:54;10.30;;;7.57;;
12892;SDS011;6514;48.606;9.222;2023-02-28T12:34:25;8.33;;;7.23;;
12892;SDS011;6514;48.606;9.222;2023-02-28T12:36:58;9.27;;;7.87;;
12892;SDS011;6514;48.606;9.222;2023-02-28T12:39:31;8.13;;;7.30;;
12892;SDS011;6514;48.606;9.222;2023-02-28T12:42:03;8.83;;;7.30;;
12892;SDS011;6514;48.606;9.222;2023-02-28T12:44:34;8.57;;;7.20;;
12892;SDS011;6514;48.606;9.222;2023-02-28T12:47:08;8.40;;;7.47;;
12892;SDS011;6514;48.606;9.222;2023-02-28T12:49:41;8.10;;;7.30;;
12892;SDS011;6514;48.606;9.222;2023-02-28T12:52:13;8.40;;;7.50;;
12892;SDS011;6514;48.606;9.222;2023-02-28T12:54:47;8.67;;;7.77;;
12892;SDS011;6514;48.606;9.222;2023-02-28T12:57:22;9.63;;;7.53;;
12892;SDS011;6514;48.606;9.222;2023-02-28T12:59:59;8.13;;;6.97;;
12892;SDS011;6514;48.606;9.222;2023-02-28T13:05:24;10.70;;;8.00;;
12892;SDS011;6514;48.606;9.222;2023-02-28T13:08:04;8.67;;;7.77;;
12892;SDS011;6514;48.606;9.222;2023-02-28T13:10:49;9.33;;;8.17;;
12892;SDS011;6514;48.606;9.222;2023-02-28T13:13:21;10.00;;;7.33;;
12892;SDS011;6514;48.606;9.222;2023-02-28T13:15:57;10.93;;;8.40;;
12892;SDS011;6514;48.606;9.222;2023-02-28T13:18:30;9.03;;;8.13;;
12892;SDS011;6514;48.606;9.222;2023-02-28T13:21:01;9.97;;;8.50;;
12892;SDS011;6514;48.606;9.222;2023-02-28T13:23:55;9.00;;;7.50;;
12892;SDS011;6514;48.606;9.222;2023-02-28T13:29:33;10.00;;;8.13;;
12892;SDS011;6514;48.606;9.222;2023-02-28T13:38:12;9.90;;;8.13;;
12892;SDS011;6514;48.606;9.222;2023-02-28T13:40:43;9.63;;;8.00;;
12892;SDS011;6514;48.606;9.222;2023-02-28T13:43:10;8.63;;;7.80;;
12892;SDS011;6514;48.606;9.222;2023-02-28T13:45:40;10.57;;;8.20;;
12892;SDS011;6514;48.606;9.222;2023-02-28T13:48:32;9.87;;;7.73;;
12892;SDS011;6514;48.606;9.222;2023-02-28T13:50:59;8.77;;;7.63;;
12892;SDS011;6514;48.606;9.222;2023-02-28T13:53:32;8.93;;;7.17;;
12892;SDS011;6514;48.606;9.222;2023-02-28T13:56:23;10.97;;;8.10;;
12892;SDS011;6514;48.606;9.222;2023-02-28T13:59:02;8.73;;;7.53;;
12892;SDS011;6514;48.606;9.222;2023-02-28T14:01:48;8.07;;;7.27;;
12892;SDS011;6514;48.606;9.222;2023-02-28T14:07:26;8.63;;;7.77;;
12892;SDS011;6514;48.606;9.222;2023-02-28T14:09:59;9.70;;;8.20;;
12892;SDS011;6514;48.606;9.222;2023-02-28T14:15:27;8.00;;;7.10;;
12892;SDS011;6514;48.606;9.222;2023-02-28T14:18:24;8.20;;;7.20;;
12892;SDS011;6514;48.606;9.222;2023-02-28T14:20:55;8.70;;;7.80;;
12892;SDS011;6514;48.606;9.222;2023-02-28T14:23:36;8.90;;;7.70;;
12892;SDS011;6514;48.606;9.222;2023-02-28T14:26:14;9.30;;;8.40;;
12892;SDS011;6514;48.606;9.222;2023-02-28T14:28:56;10.17;;;7.47;;
12892;SDS011;6514;48.606;9.222;2023-02-28T14:31:40;8.47;;;7.30;;
12892;SDS011;6514;48.606;9.222;2023-02-28T14:34:24;7.53;;;6.80;;
12892;SDS011;6514;48.606;9.222;2023-02-28T14:37:01;8.47;;;7.67;;
12892;SDS011;6514;48.606;9.222;2023-02-28T14:39:29;8.03;;;7.20;;
12892;SDS011;6514;48.606;9.222;2023-02-28T14:41:57;9.37;;;7.30;;
12892;SDS011;6514;48.606;9.222;2023-02-28T14:44:28;8.53;;;7.37;;
12892;SDS011;6514;48.606;9.222;2023-02-28T14:46:55;8.10;;;7.27;;
12892;SDS011;6514;48.606;9.222;2023-02-28T14:49:26;8.53;;;7.23;;
12892;SDS011;6514;48.606;9.222;2023-02-28T14:52:01;8.70;;;7.23;;
12892;SDS011;6514;48.606;9.222;2023-02-28T14:54:31;11.00;;;7.60;;
12892;SDS011;6514;48.606;9.222;2023-02-28T14:56:58;9.50;;;7.67;;
12892;SDS011;6514;48.606;9.222;2023-02-28T14:59:27;8.47;;;7.60;;
12892;SDS011;6514;48.606;9.222;2023-02-28T15:04:54;7.97;;;7.17;;
12892;SDS011;6514;48.606;9.222;2023-02-28T15:07:23;10.20;;;7.37;;
12892;SDS011;6514;48.606;9.222;2023-02-28T15:10:07;8.07;;;7.27;;
12892;SDS011;6514;48.606;9.222;2023-02-28T15:12:36;10.20;;;7.97;;
12892;SDS011;6514;48.606;9.222;2023-02-28T15:15:03;8.97;;;8.07;;
12892;SDS011;6514;48.606;9.222;2023-02-28T15:17:31;7.87;;;7.07;;
12892;SDS011;6514;48.606;9.222;2023-02-28T15:20:00;8.37;;;7.40;;
12892;SDS011;6514;48.606;9.222;2023-02-28T15:22:28;8.27;;;7.47;;
12892;SDS011;6514;48.606;9.222;2023-02-28T15:25:03;8.07;;;7.27;;
12892;SDS011;6514;48.606;9.222;2023-02-28T15:27:33;8.80;;;7.17;;
12892;SDS011;6514;48.606;9.222;2023-02-28T15:30:06;8.30;;;7.43;;
12892;SDS011;6514;48.606;9.222;2023-02-28T15:32:35;8.07;;;7.20;;
12892;SDS011;6514;48.606;9.222;2023-02-28T15:37:55;8.33;;;7.50;;
12892;SDS011;6514;48.606;9.222;2023-02-28T15:40:25;8.47;;;7.00;;
12892;SDS011;6514;48.606;9.222;2023-02-28T15:43:03;8.40;;;7.30;;
12892;SDS011;6514;48.606;9.222;2023-02-28T15:45:33;8.13;;;7.33;;
12892;SDS011;6514;48.606;9.222;2023-02-28T15:48:09;9.97;;;7.30;;
12892;SDS011;6514;48.606;9.222;2023-02-28T15:50:43;9.23;;;7.50;;
12892;SDS011;6514;48.606;9.222;2023-02-28T15:53:14;9.53;;;7.37;;
12892;SDS011;6514;48.606;9.222;2023-02-28T15:55:43;9.03;;;7.57;;
12892;SDS011;6514;48.606;9.222;2023-02-28T15:58:10;10.63;;;8.47;;
12892;SDS011;6514;48.606;9.222;2023-02-28T16:00:39;9.83;;;8.13;;
12892;SDS011;6514;48.606;9.222;2023-02-28T16:03:22;8.13;;;7.33;;
12892;SDS011;6514;48.606;9.222;2023-02-28T16:08:54;8.40;;;7.60;;
12892;SDS011;6514;48.606;9.222;2023-02-28T16:11:27;9.10;;;8.13;;
12892;SDS011;6514;48.606;9.222;2023-02-28T16:13:55;10.90;;;8.03;;
12892;SDS011;6514;48.606;9.222;2023-02-28T16:16:23;11.07;;;7.93;;